sensor_id;sensor_type;location;lat;lon;timestamp;P1;durP1;ratioP1;P2;durP2;ratioP2
8401;SDS011;4238;48.404;9.498;2023-11-21T05:01:16;1.03;;;0.87;;
8401;SDS011;4238;48.404;9.498;2023-11-21T05:03:43;1.57;;;0.80;;
8401;SDS011;4238;48.404;9.498;2023-11-21T05:06:11;12.80;;;12.00;;
8401;SDS011;4238;48.404;9.498;2023-11-21T05:08:39;1.70;;;1.60;;
8401;SDS011;4238;48.404;9.498;2023-11-21T05:11:07;0.93;;;0.93;;
8401;SDS011;4238;48.404;9.498;2023-11-21T05:13:35;0.70;;;0.60;;
8401;SDS011;4238;48.404;9.498;2023-11-21T05:16:04;1.07;;;0.87;;
8401;SDS011;4238;48.404;9.498;2023-11-21T05:18:33;1.07;;;0.97;;
8401;SDS011;4238;48.404;9.498;2023-11-21T05:21:00;2.50;;;1.00;;
8401;SDS011;4238;48.404;9.498;2023-11-21T05:23:27;2.07;;;0.93;;
8401;SDS011;4238;48.404;9.498;2023-11-21T05:25:54;1.80;;;0.80;;
8401;SDS011;4238;48.404;9.498;2023-11-21T05:28:21;0.60;;;0.60;;
8401;SDS011;4238;48.404;9.498;2023-11-21T05:30:48;0.70;;;0.70;;
8401;SDS011;4238;48.404;9.498;2023-11-21T05:33:15;1.77;;;0.90;;
8401;SDS011;4238;48.404;9.498;2023-11-21T05:35:43;1.13;;;0.63;;
8401;SDS011;4238;48.404;9.498;2023-11-21T05:38:10;3.17;;;1.20;;
8401;SDS011;4238;48.404;9.498;2023-11-21T05:40:37;0.93;;;0.80;;
8401;SDS011;4238;48.404;9.498;2023-11-21T05:43:03;0.80;;;0.80;;
8401;SDS011;4238;48.404;9.498;2023-11-21T05:45:31;1.00;;;1.00;;
8401;SDS011;4238;48.404;9.498;2023-11-21T05:47:58;2.87;;;1.00;;
8401;SDS011;4238;48.404;9.498;2023-11-21T05:50:25;1.73;;;0.90;;
8401;SDS011;4238;48.404;9.498;2023-11-21T05:52:54;1.07;;;0.97;;
8401;SDS011;4238;48.404;9.498;2023-11-21T05:55:22;1.53;;;0.80;;
8401;SDS011;4238;48.404;9.498;2023-11-21T05:57:50;0.73;;;0.73;;
8401;SDS011;4238;48.404;9.498;2023-11-21T06:00:18;1.60;;;0.70;;
8401;SDS011;4238;48.404;9.498;2023-11-21T06:02:46;1.97;;;1.10;;
8401;SDS011;4238;48.404;9.498;2023-11-21T06:05:15;2.80;;;1.10;;
8401;SDS011;4238;48.404;9.498;2023-11-21T06:07:43;0.87;;;0.87;;
8401;SDS011;4238;48.404;9.498;2023-11-21T06:10:12;1.23;;;1.10;;
8401;SDS011;4238;48.404;9.498;2023-11-21T06:12:39;1.57;;;1.20;;
8401;SDS011;4238;48.404;9.498;2023-11-21T06:15:08;0.80;;;0.80;;
8401;SDS011;4238;48.404;9.498;2023-11-21T06:17:38;2.23;;;1.73;;
8401;SDS011;4238;48.404;9.498;2023-11-21T06:20:06;1.43;;;1.33;;
8401;SDS011;4238;48.404;9.498;2023-11-21T06:22:35;1.37;;;1.27;;
8401;SDS011;4238;48.404;9.498;2023-11-21T06:25:02;1.70;;;1.60;;
8401;SDS011;4238;48.404;9.498;2023-11-21T06:27:32;1.50;;;1.40;;
8401;SDS011;4238;48.404;9.498;2023-11-21T06:29:59;2.60;;;1.37;;
8401;SDS011;4238;48.404;9.498;2023-11-21T06:32:26;3.90;;;3.50;;
8401;SDS011;4238;48.404;9.498;2023-11-21T06:34:54;2.43;;;2.23;;
8401;SDS011;4238;48.404;9.498;2023-11-21T06:37:24;1.50;;;1.40;;
8401;SDS011;4238;48.404;9.498;2023-11-21T06:39:51;2.08;;;1.80;;
8401;SDS011;4238;48.404;9.498;2023-11-21T06:42:18;2.37;;;1.47;;
8401;SDS011;4238;48.404;9.498;2023-11-21T06:44:47;1.50;;;1.27;;
8401;SDS011;4238;48.404;9.498;2023-11-21T06:47:14;1.53;;;1.47;;
8401;SDS011;4238;48.404;9.498;2023-11-21T06:49:42;2.57;;;1.73;;
8401;SDS011;4238;48.404;9.498;2023-11-21T06:52:13;1.50;;;1.40;;
8401;SDS011;4238;48.404;9.498;2023-11-21T06:54:40;2.00;;;1.60;;
8401;SDS011;4238;48.404;9.498;2023-11-21T06:57:06;1.43;;;1.33;;
8401;SDS011;4238;48.404;9.498;2023-11-21T06:59:33;2.10;;;1.60;;
8401;SDS011;4238;48.404;9.498;2023-11-21T07:02:02;1.63;;;1.40;;
8401;SDS011;4238;48.404;9.498;2023-11-21T07:04:31;2.40;;;1.60;;
8401;SDS011;4238;48.404;9.498;2023-11-21T07:06:58;2.53;;;1.30;;
8401;SDS011;4238;48.404;9.498;2023-11-21T07:09:25;1.33;;;1.23;;
8401;SDS011;4238;48.404;9.498;2023-11-21T07:11:52;2.70;;;1.50;;
8401;SDS011;4238;48.404;9.498;2023-11-21T07:14:19;1.30;;;1.10;;
8401;SDS011;4238;48.404;9.498;2023-11-21T07:16:46;2.00;;;1.43;;
8401;SDS011;4238;48.404;9.498;2023-11-21T07:19:15;1.93;;;1.13;;
8401;SDS011;4238;48.404;9.498;2023-11-21T07:21:41;2.27;;;1.27;;
8401;SDS011;4238;48.404;9.498;2023-11-21T07:24:08;1.37;;;1.37;;
8401;SDS011;4238;48.404;9.498;2023-11-21T07:26:36;1.50;;;1.40;;
8401;SDS011;4238;48.404;9.498;2023-11-21T07:29:03;1.60;;;1.27;;
8401;SDS011;4238;48.404;9.498;2023-11-21T07:31:31;3.67;;;3.37;;
8401;SDS011;4238;48.404;9.498;2023-11-21T07:33:59;2.60;;;2.40;;
8401;SDS011;4238;48.404;9.498;2023-11-21T07:36:27;2.07;;;1.97;;
8401;SDS011;4238;48.404;9.498;2023-11-21T07:38:54;1.40;;;1.30;;
8401;SDS011;4238;48.404;9.498;2023-11-21T07:41:21;2.20;;;1.67;;
8401;SDS011;4238;48.404;9.498;2023-11-21T07:43:48;1.47;;;1.37;;
8401;SDS011;4238;48.404;9.498;2023-11-21T07:46:14;1.30;;;1.10;;
8401;SDS011;4238;48.404;9.498;2023-11-21T07:48:42;1.63;;;1.53;;
8401;SDS011;4238;48.404;9.498;2023-11-21T07:51:09;1.77;;;1.53;;
8401;SDS011;4238;48.404;9.498;2023-11-21T07:53:39;1.30;;;1.30;;
8401;SDS011;4238;48.404;9.498;2023-11-21T07:56:07;1.97;;;1.33;;
8401;SDS011;4238;48.404;9.498;2023-11-21T07:58:35;2.20;;;2.00;;
8401;SDS011;4238;48.404;9.498;2023-11-21T08:01:02;2.13;;;1.93;;
8401;SDS011;4238;48.404;9.498;2023-11-21T08:03:29;4.93;;;3.70;;
8401;SDS011;4238;48.404;9.498;2023-11-21T08:05:57;4.73;;;4.03;;
8401;SDS011;4238;48.404;9.498;2023-11-21T08:08:24;1.90;;;1.80;;
8401;SDS011;4238;48.404;9.498;2023-11-21T08:10:54;4.17;;;2.33;;
8401;SDS011;4238;48.404;9.498;2023-11-21T08:13:22;3.50;;;3.20;;
8401;SDS011;4238;48.404;9.498;2023-11-21T08:15:49;2.73;;;2.53;;
8401;SDS011;4238;48.404;9.498;2023-11-21T08:18:16;2.40;;;2.27;;
8401;SDS011;4238;48.404;9.498;2023-11-21T08:20:44;2.10;;;2.00;;
8401;SDS011;4238;48.404;9.498;2023-11-21T08:23:12;2.50;;;2.30;;
8401;SDS011;4238;48.404;9.498;2023-11-21T08:25:41;1.43;;;1.20;;
8401;SDS011;4238;48.404;9.498;2023-11-21T08:28:10;2.70;;;2.50;;
8401;SDS011;4238;48.404;9.498;2023-11-21T08:30:37;0.70;;;0.70;;
8401;SDS011;4238;48.404;9.498;2023-11-21T08:33:04;1.63;;;1.10;;
8401;SDS011;4238;48.404;9.498;2023-11-21T08:35:31;0.90;;;0.90;;
8401;SDS011;4238;48.404;9.498;2023-11-21T08:37:58;0.63;;;0.63;;
8401;SDS011;4238;48.404;9.498;2023-11-21T08:40:25;0.93;;;0.93;;
8401;SDS011;4238;48.404;9.498;2023-11-21T08:42:52;1.47;;;1.37;;
8401;SDS011;4238;48.404;9.498;2023-11-21T08:45:21;3.13;;;2.50;;
8401;SDS011;4238;48.404;9.498;2023-11-21T08:47:48;2.17;;;2.00;;
8401;SDS011;4238;48.404;9.498;2023-11-21T08:50:15;1.20;;;1.20;;
8401;SDS011;4238;48.404;9.498;2023-11-21T08:52:42;1.57;;;1.47;;
8401;SDS011;4238;48.404;9.498;2023-11-21T08:55:10;2.40;;;2.20;;
8401;SDS011;4238;48.404;9.498;2023-11-21T08:57:38;0.90;;;0.90;;
8401;SDS011;4238;48.404;9.498;2023-11-21T09:00:07;1.23;;;0.80;;
8401;SDS011;4238;48.404;9.498;2023-11-21T09:02:38;0.90;;;0.90;;
8401;SDS011;4238;48.404;9.498;2023-11-21T09:05:07;0.77;;;0.77;;
8401;SDS011;4238;48.404;9.498;2023-11-21T09:07:34;1.10;;;1.00;;
8401;SDS011;4238;48.404;9.498;2023-11-21T09:10:01;0.80;;;0.80;;
8401;SDS011;4238;48.404;9.498;2023-11-21T09:12:28;1.00;;;1.00;;
8401;SDS011;4238;48.404;9.498;2023-11-21T09:14:57;0.83;;;0.83;;
8401;SDS011;4238;48.404;9.498;2023-11-21T09:17:24;1.20;;;1.20;;
8401;SDS011;4238;48.404;9.498;2023-11-21T09:19:52;2.30;;;2.20;;
8401;SDS011;4238;48.404;9.498;2023-11-21T09:22:19;2.77;;;2.57;;
8401;SDS011;4238;48.404;9.498;2023-11-21T09:24:46;1.73;;;1.63;;
8401;SDS011;4238;48.404;9.498;2023-11-21T09:27:13;1.23;;;1.13;;
8401;SDS011;4238;48.404;9.498;2023-11-21T09:29:40;1.80;;;1.70;;
8401;SDS011;4238;48.404;9.498;2023-11-21T09:32:07;2.50;;;2.30;;
8401;SDS011;4238;48.404;9.498;2023-11-21T09:34:37;3.67;;;3.37;;
8401;SDS011;4238;48.404;9.498;2023-11-21T09:37:05;4.63;;;3.70;;
8401;SDS011;4238;48.404;9.498;2023-11-21T09:39:33;1.57;;;1.47;;
8401;SDS011;4238;48.404;9.498;2023-11-21T09:42:03;1.00;;;1.00;;
8401;SDS011;4238;48.404;9.498;2023-11-21T09:44:36;1.07;;;1.07;;
8401;SDS011;4238;48.404;9.498;2023-11-21T09:47:14;1.30;;;0.90;;
8401;SDS011;4238;48.404;9.498;2023-11-21T09:49:41;1.70;;;1.60;;
8401;SDS011;4238;48.404;9.498;2023-11-21T09:52:15;1.23;;;1.13;;
8401;SDS011;4238;48.404;9.498;2023-11-21T09:54:50;1.03;;;1.00;;
8401;SDS011;4238;48.404;9.498;2023-11-21T09:57:19;3.50;;;2.23;;
8401;SDS011;4238;48.404;9.498;2023-11-21T09:59:48;5.53;;;4.13;;
8401;SDS011;4238;48.404;9.498;2023-11-21T10:02:17;6.73;;;4.93;;
8401;SDS011;4238;48.404;9.498;2023-11-21T10:04:46;4.40;;;4.00;;
8401;SDS011;4238;48.404;9.498;2023-11-21T10:07:15;2.63;;;2.43;;
8401;SDS011;4238;48.404;9.498;2023-11-21T10:09:43;1.93;;;1.83;;
8401;SDS011;4238;48.404;9.498;2023-11-21T10:12:11;1.80;;;1.70;;
8401;SDS011;4238;48.404;9.498;2023-11-21T10:14:41;1.50;;;1.40;;
8401;SDS011;4238;48.404;9.498;2023-11-21T10:17:10;1.40;;;1.30;;
8401;SDS011;4238;48.404;9.498;2023-11-21T10:19:38;1.43;;;1.33;;
8401;SDS011;4238;48.404;9.498;2023-11-21T10:22:06;1.57;;;1.50;;
8401;SDS011;4238;48.404;9.498;2023-11-21T10:24:35;2.10;;;1.23;;
8401;SDS011;4238;48.404;9.498;2023-11-21T10:27:03;0.80;;;0.80;;
8401;SDS011;4238;48.404;9.498;2023-11-21T10:29:31;1.03;;;1.00;;
8401;SDS011;4238;48.404;9.498;2023-11-21T10:32:01;1.23;;;0.83;;
8401;SDS011;4238;48.404;9.498;2023-11-21T10:34:29;1.10;;;1.00;;
8401;SDS011;4238;48.404;9.498;2023-11-21T10:36:56;2.20;;;1.33;;
8401;SDS011;4238;48.404;9.498;2023-11-21T10:39:24;1.07;;;1.07;;
8401;SDS011;4238;48.404;9.498;2023-11-21T10:41:57;0.67;;;0.67;;
8401;SDS011;4238;48.404;9.498;2023-11-21T10:44:26;0.73;;;0.73;;
8401;SDS011;4238;48.404;9.498;2023-11-21T10:46:53;1.43;;;1.37;;
8401;SDS011;4238;48.404;9.498;2023-11-21T10:49:22;0.90;;;0.90;;
8401;SDS011;4238;48.404;9.498;2023-11-21T10:51:51;1.50;;;1.40;;
8401;SDS011;4238;48.404;9.498;2023-11-21T10:54:19;1.03;;;0.93;;
8401;SDS011;4238;48.404;9.498;2023-11-21T10:56:47;1.87;;;1.20;;
8401;SDS011;4238;48.404;9.498;2023-11-21T10:59:17;1.37;;;1.27;;
8401;SDS011;4238;48.404;9.498;2023-11-21T11:01:46;2.73;;;1.33;;
8401;SDS011;4238;48.404;9.498;2023-11-21T11:04:16;1.30;;;1.30;;
8401;SDS011;4238;48.404;9.498;2023-11-21T11:06:44;3.67;;;3.50;;
8401;SDS011;4238;48.404;9.498;2023-11-21T11:09:16;0.90;;;0.90;;
8401;SDS011;4238;48.404;9.498;2023-11-21T11:11:43;0.87;;;0.87;;
8401;SDS011;4238;48.404;9.498;2023-11-21T11:14:11;1.23;;;0.80;;
8401;SDS011;4238;48.404;9.498;2023-11-21T11:16:41;1.40;;;1.33;;
8401;SDS011;4238;48.404;9.498;2023-11-21T11:19:08;0.60;;;0.60;;
8401;SDS011;4238;48.404;9.498;2023-11-21T11:21:39;0.37;;;0.37;;
8401;SDS011;4238;48.404;9.498;2023-11-21T11:24:17;1.23;;;0.73;;
8401;SDS011;4238;48.404;9.498;2023-11-21T11:27:01;0.70;;;0.70;;
8401;SDS011;4238;48.404;9.498;2023-11-21T11:29:39;1.17;;;1.17;;
8401;SDS011;4238;48.404;9.498;2023-11-21T11:32:16;2.20;;;2.07;;
8401;SDS011;4238;48.404;9.498;2023-11-21T11:34:48;0.77;;;0.77;;
8401;SDS011;4238;48.404;9.498;2023-11-21T11:37:23;0.80;;;0.80;;
8401;SDS011;4238;48.404;9.498;2023-11-21T11:39:50;1.63;;;1.53;;
8401;SDS011;4238;48.404;9.498;2023-11-21T11:42:19;1.80;;;1.23;;
8401;SDS011;4238;48.404;9.498;2023-11-21T11:44:49;3.80;;;2.27;;
8401;SDS011;4238;48.404;9.498;2023-11-21T11:47:21;3.87;;;2.63;;
8401;SDS011;4238;48.404;9.498;2023-11-21T11:49:57;4.37;;;2.70;;
8401;SDS011;4238;48.404;9.498;2023-11-21T11:52:32;3.47;;;2.77;;
8401;SDS011;4238;48.404;9.498;2023-11-21T11:55:00;1.40;;;1.30;;
8401;SDS011;4238;48.404;9.498;2023-11-21T11:57:29;0.87;;;0.87;;
8401;SDS011;4238;48.404;9.498;2023-11-21T12:00:07;2.37;;;2.17;;
8401;SDS011;4238;48.404;9.498;2023-11-21T12:02:43;1.47;;;1.37;;
8401;SDS011;4238;48.404;9.498;2023-11-21T12:05:12;1.10;;;1.10;;
8401;SDS011;4238;48.404;9.498;2023-11-21T12:07:41;1.00;;;1.00;;
8401;SDS011;4238;48.404;9.498;2023-11-21T12:10:11;2.80;;;2.60;;
8401;SDS011;4238;48.404;9.498;2023-11-21T12:12:41;2.70;;;2.50;;
8401;SDS011;4238;48.404;9.498;2023-11-21T12:15:09;2.00;;;1.90;;
8401;SDS011;4238;48.404;9.498;2023-11-21T12:17:37;2.10;;;2.00;;
8401;SDS011;4238;48.404;9.498;2023-11-21T12:20:07;2.10;;;2.00;;
8401;SDS011;4238;48.404;9.498;2023-11-21T12:22:41;1.27;;;1.27;;
8401;SDS011;4238;48.404;9.498;2023-11-21T12:25:09;1.17;;;0.87;;
8401;SDS011;4238;48.404;9.498;2023-11-21T12:27:41;1.30;;;1.30;;
8401;SDS011;4238;48.404;9.498;2023-11-21T12:30:09;1.90;;;1.80;;
8401;SDS011;4238;48.404;9.498;2023-11-21T12:32:40;2.07;;;1.90;;
8401;SDS011;4238;48.404;9.498;2023-11-21T12:35:09;2.30;;;1.80;;
8401;SDS011;4238;48.404;9.498;2023-11-21T12:37:37;1.43;;;1.33;;
8401;SDS011;4238;48.404;9.498;2023-11-21T12:40:05;1.53;;;1.50;;
8401;SDS011;4238;48.404;9.498;2023-11-21T12:42:36;2.07;;;1.97;;
8401;SDS011;4238;48.404;9.498;2023-11-21T12:45:06;1.40;;;1.30;;
8401;SDS011;4238;48.404;9.498;2023-11-21T12:47:39;6.13;;;4.43;;
8401;SDS011;4238;48.404;9.498;2023-11-21T12:50:07;3.60;;;2.93;;
8401;SDS011;4238;48.404;9.498;2023-11-21T12:52:40;6.50;;;4.40;;
8401;SDS011;4238;48.404;9.498;2023-11-21T12:55:12;7.00;;;5.60;;
8401;SDS011;4238;48.404;9.498;2023-11-21T12:57:41;5.03;;;4.53;;
8401;SDS011;4238;48.404;9.498;2023-11-21T13:00:09;7.87;;;5.70;;
8401;SDS011;4238;48.404;9.498;2023-11-21T13:02:38;0.87;;;0.87;;
8401;SDS011;4238;48.404;9.498;2023-11-21T13:05:08;8.43;;;7.63;;
8401;SDS011;4238;48.404;9.498;2023-11-21T13:07:44;1.93;;;1.83;;
8401;SDS011;4238;48.404;9.498;2023-11-21T13:10:13;2.53;;;2.33;;
8401;SDS011;4238;48.404;9.498;2023-11-21T13:12:42;16.43;;;11.93;;
8401;SDS011;4238;48.404;9.498;2023-11-21T13:15:13;3.77;;;2.83;;
8401;SDS011;4238;48.404;9.498;2023-11-21T13:17:41;9.70;;;7.17;;
8401;SDS011;4238;48.404;9.498;2023-11-21T13:20:09;4.00;;;3.70;;
8401;SDS011;4238;48.404;9.498;2023-11-21T13:22:45;1.37;;;0.90;;
8401;SDS011;4238;48.404;9.498;2023-11-21T13:25:14;0.67;;;0.67;;
8401;SDS011;4238;48.404;9.498;2023-11-21T13:27:42;1.23;;;0.97;;
8401;SDS011;4238;48.404;9.498;2023-11-21T13:30:11;0.90;;;0.90;;
8401;SDS011;4238;48.404;9.498;2023-11-21T13:32:42;2.63;;;2.53;;
8401;SDS011;4238;48.404;9.498;2023-11-21T13:35:11;2.00;;;1.90;;
8401;SDS011;4238;48.404;9.498;2023-11-21T13:37:48;2.10;;;1.77;;
8401;SDS011;4238;48.404;9.498;2023-11-21T13:40:20;3.10;;;1.90;;
8401;SDS011;4238;48.404;9.498;2023-11-21T13:42:50;1.20;;;1.20;;
8401;SDS011;4238;48.404;9.498;2023-11-21T13:45:19;1.07;;;1.07;;
8401;SDS011;4238;48.404;9.498;2023-11-21T13:47:48;1.23;;;1.23;;
8401;SDS011;4238;48.404;9.498;2023-11-21T13:50:17;2.13;;;1.90;;
8401;SDS011;4238;48.404;9.498;2023-11-21T13:52:49;2.67;;;2.47;;
8401;SDS011;4238;48.404;9.498;2023-11-21T13:55:18;4.30;;;3.67;;
8401;SDS011;4238;48.404;9.498;2023-11-21T13:57:45;2.70;;;2.50;;
8401;SDS011;4238;48.404;9.498;2023-11-21T14:00:15;3.33;;;3.03;;
8401;SDS011;4238;48.404;9.498;2023-11-21T14:02:56;3.10;;;2.70;;
8401;SDS011;4238;48.404;9.498;2023-11-21T14:05:25;5.53;;;3.10;;
8401;SDS011;4238;48.404;9.498;2023-11-21T14:07:55;2.53;;;2.33;;
8401;SDS011;4238;48.404;9.498;2023-11-21T14:10:28;1.67;;;1.57;;
8401;SDS011;4238;48.404;9.498;2023-11-21T14:13:01;7.03;;;5.50;;
8401;SDS011;4238;48.404;9.498;2023-11-21T14:15:29;9.70;;;7.03;;
8401;SDS011;4238;48.404;9.498;2023-11-21T14:17:58;2.80;;;2.60;;
8401;SDS011;4238;48.404;9.498;2023-11-21T14:20:27;15.93;;;9.50;;
8401;SDS011;4238;48.404;9.498;2023-11-21T14:22:56;6.53;;;5.03;;
8401;SDS011;4238;48.404;9.498;2023-11-21T14:25:23;3.10;;;2.80;;
8401;SDS011;4238;48.404;9.498;2023-11-21T14:27:52;5.03;;;4.63;;
8401;SDS011;4238;48.404;9.498;2023-11-21T14:30:18;2.70;;;2.60;;
8401;SDS011;4238;48.404;9.498;2023-11-21T14:32:47;2.40;;;2.20;;
8401;SDS011;4238;48.404;9.498;2023-11-21T14:35:14;3.30;;;2.90;;
8401;SDS011;4238;48.404;9.498;2023-11-21T14:37:41;3.10;;;2.90;;
8401;SDS011;4238;48.404;9.498;2023-11-21T14:40:11;2.80;;;2.33;;
8401;SDS011;4238;48.404;9.498;2023-11-21T14:42:41;1.57;;;1.53;;
8401;SDS011;4238;48.404;9.498;2023-11-21T14:45:10;2.53;;;2.33;;
8401;SDS011;4238;48.404;9.498;2023-11-21T14:47:38;1.40;;;1.27;;
8401;SDS011;4238;48.404;9.498;2023-11-21T14:50:09;1.93;;;1.83;;
8401;SDS011;4238;48.404;9.498;2023-11-21T14:53:04;1.50;;;1.40;;
8401;SDS011;4238;48.404;9.498;2023-11-21T14:55:32;2.30;;;2.20;;
8401;SDS011;4238;48.404;9.498;2023-11-21T14:58:12;2.13;;;2.03;;
8401;SDS011;4238;48.404;9.498;2023-11-21T15:00:43;2.50;;;2.30;;
8401;SDS011;4238;48.404;9.498;2023-11-21T15:03:10;3.43;;;2.80;;
8401;SDS011;4238;48.404;9.498;2023-11-21T15:05:51;2.80;;;2.60;;
8401;SDS011;4238;48.404;9.498;2023-11-21T15:08:18;2.77;;;2.57;;
8401;SDS011;4238;48.404;9.498;2023-11-21T15:10:50;2.60;;;2.40;;
8401;SDS011;4238;48.404;9.498;2023-11-21T15:13:20;2.30;;;2.10;;
8401;SDS011;4238;48.404;9.498;2023-11-21T15:15:47;2.17;;;2.07;;
8401;SDS011;4238;48.404;9.498;2023-11-21T15:18:13;2.90;;;2.70;;
8401;SDS011;4238;48.404;9.498;2023-11-21T15:20:40;2.57;;;2.37;;
8401;SDS011;4238;48.404;9.498;2023-11-21T15:23:08;2.10;;;2.00;;
8401;SDS011;4238;48.404;9.498;2023-11-21T15:25:37;2.87;;;2.67;;
8401;SDS011;4238;48.404;9.498;2023-11-21T15:28:06;3.17;;;2.97;;
8401;SDS011;4238;48.404;9.498;2023-11-21T15:30:32;3.10;;;2.90;;
8401;SDS011;4238;48.404;9.498;2023-11-21T15:32:59;3.63;;;3.37;;
8401;SDS011;4238;48.404;9.498;2023-11-21T15:35:28;3.33;;;3.13;;
8401;SDS011;4238;48.404;9.498;2023-11-21T15:37:56;3.90;;;3.70;;
8401;SDS011;4238;48.404;9.498;2023-11-21T15:40:24;3.20;;;2.90;;
8401;SDS011;4238;48.404;9.498;2023-11-21T15:42:51;3.03;;;2.80;;
8401;SDS011;4238;48.404;9.498;2023-11-21T15:45:20;4.17;;;3.87;;
8401;SDS011;4238;48.404;9.498;2023-11-21T15:47:49;3.63;;;3.33;;
8401;SDS011;4238;48.404;9.498;2023-11-21T15:50:16;5.47;;;4.97;;
8401;SDS011;4238;48.404;9.498;2023-11-21T15:52:43;4.57;;;4.17;;
8401;SDS011;4238;48.404;9.498;2023-11-21T15:55:10;5.20;;;4.70;;
8401;SDS011;4238;48.404;9.498;2023-11-21T15:57:38;4.40;;;4.00;;
8401;SDS011;4238;48.404;9.498;2023-11-21T16:00:05;5.13;;;4.70;;
8401;SDS011;4238;48.404;9.498;2023-11-21T16:02:42;4.30;;;3.90;;
8401;SDS011;4238;48.404;9.498;2023-11-21T16:05:09;4.80;;;4.30;;
8401;SDS011;4238;48.404;9.498;2023-11-21T16:07:38;5.13;;;4.73;;
8401;SDS011;4238;48.404;9.498;2023-11-21T16:10:06;6.93;;;5.37;;
8401;SDS011;4238;48.404;9.498;2023-11-21T16:12:35;4.37;;;4.07;;
8401;SDS011;4238;48.404;9.498;2023-11-21T16:15:02;2.87;;;2.67;;
8401;SDS011;4238;48.404;9.498;2023-11-21T16:17:34;2.10;;;2.00;;
8401;SDS011;4238;48.404;9.498;2023-11-21T16:20:02;2.77;;;2.57;;
8401;SDS011;4238;48.404;9.498;2023-11-21T16:22:33;2.80;;;2.60;;
8401;SDS011;4238;48.404;9.498;2023-11-21T16:25:00;7.37;;;6.67;;
8401;SDS011;4238;48.404;9.498;2023-11-21T16:27:29;4.83;;;4.33;;
8401;SDS011;4238;48.404;9.498;2023-11-21T16:29:56;5.13;;;4.23;;
8401;SDS011;4238;48.404;9.498;2023-11-21T16:32:24;4.20;;;3.90;;
8401;SDS011;4238;48.404;9.498;2023-11-21T16:34:51;3.53;;;2.80;;
8401;SDS011;4238;48.404;9.498;2023-11-21T16:37:19;6.37;;;5.80;;
8401;SDS011;4238;48.404;9.498;2023-11-21T16:39:46;3.60;;;3.30;;
8401;SDS011;4238;48.404;9.498;2023-11-21T16:42:12;3.40;;;3.20;;
8401;SDS011;4238;48.404;9.498;2023-11-21T16:44:39;3.97;;;3.57;;
8401;SDS011;4238;48.404;9.498;2023-11-21T16:47:06;5.00;;;4.50;;
8401;SDS011;4238;48.404;9.498;2023-11-21T16:49:33;5.40;;;4.93;;
8401;SDS011;4238;48.404;9.498;2023-11-21T16:52:01;4.77;;;4.37;;
8401;SDS011;4238;48.404;9.498;2023-11-21T16:54:30;5.07;;;4.60;;
8401;SDS011;4238;48.404;9.498;2023-11-21T16:56:57;4.80;;;4.40;;
8401;SDS011;4238;48.404;9.498;2023-11-21T16:59:24;4.60;;;4.30;;
8401;SDS011;4238;48.404;9.498;2023-11-21T17:01:50;6.55;;;6.05;;
8401;SDS011;4238;48.404;9.498;2023-11-21T17:04:17;6.50;;;5.93;;
8401;SDS011;4238;48.404;9.498;2023-11-21T17:06:44;6.07;;;5.47;;
8401;SDS011;4238;48.404;9.498;2023-11-21T17:09:12;10.17;;;8.80;;
8401;SDS011;4238;48.404;9.498;2023-11-21T17:11:41;18.77;;;16.00;;
8401;SDS011;4238;48.404;9.498;2023-11-21T17:14:08;25.50;;;20.10;;
8401;SDS011;4238;48.404;9.498;2023-11-21T17:16:35;5.97;;;5.47;;
8401;SDS011;4238;48.404;9.498;2023-11-21T17:19:02;10.97;;;9.33;;
8401;SDS011;4238;48.404;9.498;2023-11-21T17:21:29;5.57;;;5.03;;
8401;SDS011;4238;48.404;9.498;2023-11-21T17:23:57;6.43;;;5.23;;
8401;SDS011;4238;48.404;9.498;2023-11-21T17:26:25;5.80;;;4.87;;
8401;SDS011;4238;48.404;9.498;2023-11-21T17:28:53;5.47;;;4.90;;
8401;SDS011;4238;48.404;9.498;2023-11-21T17:31:22;10.60;;;8.77;;
8401;SDS011;4238;48.404;9.498;2023-11-21T17:33:48;39.03;;;28.50;;
8401;SDS011;4238;48.404;9.498;2023-11-21T17:36:15;23.87;;;15.97;;
8401;SDS011;4238;48.404;9.498;2023-11-21T17:38:44;14.63;;;8.93;;
8401;SDS011;4238;48.404;9.498;2023-11-21T17:41:10;7.70;;;7.00;;
8401;SDS011;4238;48.404;9.498;2023-11-21T17:43:37;5.13;;;4.73;;
8401;SDS011;4238;48.404;9.498;2023-11-21T17:46:08;7.00;;;5.97;;
8401;SDS011;4238;48.404;9.498;2023-11-21T17:48:36;4.90;;;4.40;;
8401;SDS011;4238;48.404;9.498;2023-11-21T17:51:05;10.57;;;8.03;;
8401;SDS011;4238;48.404;9.498;2023-11-21T17:53:33;6.17;;;5.57;;
8401;SDS011;4238;48.404;9.498;2023-11-21T17:55:59;3.60;;;3.30;;
8401;SDS011;4238;48.404;9.498;2023-11-21T17:58:26;13.27;;;9.10;;
8401;SDS011;4238;48.404;9.498;2023-11-21T18:00:54;35.97;;;21.63;;
8401;SDS011;4238;48.404;9.498;2023-11-21T18:03:22;7.83;;;7.03;;
8401;SDS011;4238;48.404;9.498;2023-11-21T18:05:49;6.40;;;5.90;;
8401;SDS011;4238;48.404;9.498;2023-11-21T18:08:16;7.90;;;7.10;;
8401;SDS011;4238;48.404;9.498;2023-11-21T18:10:42;6.83;;;5.33;;
8401;SDS011;4238;48.404;9.498;2023-11-21T18:13:11;5.87;;;5.30;;
8401;SDS011;4238;48.404;9.498;2023-11-21T18:15:38;6.47;;;4.53;;
8401;SDS011;4238;48.404;9.498;2023-11-21T18:18:05;5.70;;;4.40;;
8401;SDS011;4238;48.404;9.498;2023-11-21T18:20:34;4.53;;;4.13;;
8401;SDS011;4238;48.404;9.498;2023-11-21T18:23:00;5.20;;;4.80;;
8401;SDS011;4238;48.404;9.498;2023-11-21T18:25:27;5.50;;;5.00;;
8401;SDS011;4238;48.404;9.498;2023-11-21T18:27:54;4.13;;;3.83;;
8401;SDS011;4238;48.404;9.498;2023-11-21T18:30:21;4.77;;;4.47;;
8401;SDS011;4238;48.404;9.498;2023-11-21T18:32:48;6.10;;;5.50;;
8401;SDS011;4238;48.404;9.498;2023-11-21T18:35:15;9.53;;;7.97;;
8401;SDS011;4238;48.404;9.498;2023-11-21T18:37:43;6.90;;;6.00;;
8401;SDS011;4238;48.404;9.498;2023-11-21T18:40:11;8.37;;;7.57;;
8401;SDS011;4238;48.404;9.498;2023-11-21T18:42:40;5.97;;;5.47;;
8401;SDS011;4238;48.404;9.498;2023-11-21T18:45:09;5.00;;;4.53;;
8401;SDS011;4238;48.404;9.498;2023-11-21T18:47:37;5.67;;;5.17;;
8401;SDS011;4238;48.404;9.498;2023-11-21T18:50:04;5.67;;;5.07;;
8401;SDS011;4238;48.404;9.498;2023-11-21T18:52:33;5.73;;;5.20;;
8401;SDS011;4238;48.404;9.498;2023-11-21T18:55:01;6.43;;;5.33;;
8401;SDS011;4238;48.404;9.498;2023-11-21T18:57:29;6.10;;;5.50;;
8401;SDS011;4238;48.404;9.498;2023-11-21T18:59:56;5.70;;;5.10;;
8401;SDS011;4238;48.404;9.498;2023-11-21T19:02:23;5.30;;;4.80;;
8401;SDS011;4238;48.404;9.498;2023-11-21T19:04:50;5.40;;;4.90;;
8401;SDS011;4238;48.404;9.498;2023-11-21T19:07:17;8.00;;;5.40;;
8401;SDS011;4238;48.404;9.498;2023-11-21T19:09:47;5.90;;;5.37;;
8401;SDS011;4238;48.404;9.498;2023-11-21T19:12:15;5.73;;;5.17;;
8401;SDS011;4238;48.404;9.498;2023-11-21T19:14:42;5.60;;;5.10;;
8401;SDS011;4238;48.404;9.498;2023-11-21T19:17:11;5.73;;;5.10;;
8401;SDS011;4238;48.404;9.498;2023-11-21T19:19:38;5.63;;;5.10;;
8401;SDS011;4238;48.404;9.498;2023-11-21T19:22:05;5.33;;;4.83;;
8401;SDS011;4238;48.404;9.498;2023-11-21T19:24:33;5.97;;;4.47;;
8401;SDS011;4238;48.404;9.498;2023-11-21T19:27:00;5.93;;;4.70;;
8401;SDS011;4238;48.404;9.498;2023-11-21T19:29:29;6.23;;;5.43;;
8401;SDS011;4238;48.404;9.498;2023-11-21T19:31:56;5.23;;;4.73;;
8401;SDS011;4238;48.404;9.498;2023-11-21T19:34:23;7.03;;;5.53;;
8401;SDS011;4238;48.404;9.498;2023-11-21T19:36:51;6.13;;;5.53;;
8401;SDS011;4238;48.404;9.498;2023-11-21T19:39:20;7.73;;;6.03;;
8401;SDS011;4238;48.404;9.498;2023-11-21T19:41:48;7.23;;;5.43;;
8401;SDS011;4238;48.404;9.498;2023-11-21T19:44:15;7.07;;;6.37;;
8401;SDS011;4238;48.404;9.498;2023-11-21T19:46:43;9.50;;;6.90;;
8401;SDS011;4238;48.404;9.498;2023-11-21T19:49:10;8.07;;;7.00;;
8401;SDS011;4238;48.404;9.498;2023-11-21T19:51:37;8.37;;;7.07;;
8401;SDS011;4238;48.404;9.498;2023-11-21T19:54:04;9.23;;;7.73;;
8401;SDS011;4238;48.404;9.498;2023-11-21T19:56:31;10.57;;;8.50;;
8401;SDS011;4238;48.404;9.498;2023-11-21T19:59:00;10.90;;;8.50;;
8401;SDS011;4238;48.404;9.498;2023-11-21T20:01:27;9.30;;;7.60;;
8401;SDS011;4238;48.404;9.498;2023-11-21T20:03:56;9.50;;;8.07;;
8401;SDS011;4238;48.404;9.498;2023-11-21T20:06:22;11.10;;;7.93;;
8401;SDS011;4238;48.404;9.498;2023-11-21T20:08:49;15.47;;;10.93;;
8401;SDS011;4238;48.404;9.498;2023-11-21T20:11:18;9.67;;;8.60;;
8401;SDS011;4238;48.404;9.498;2023-11-21T20:13:47;12.33;;;8.63;;
8401;SDS011;4238;48.404;9.498;2023-11-21T20:16:14;10.73;;;8.90;;
8401;SDS011;4238;48.404;9.498;2023-11-21T20:18:43;12.03;;;9.30;;
8401;SDS011;4238;48.404;9.498;2023-11-21T20:21:12;12.97;;;10.17;;
8401;SDS011;4238;48.404;9.498;2023-11-21T20:23:45;13.73;;;9.23;;